CheckWX is a tool to help pilots better visualize weather data.  It is not intended as a substitute for an official pre-flight weather briefing.

03:36:27 UTC

KTEW METAR
Mason Jewett Field Airport
Mason, Michigan, USA
Current

29 mins ago

KTEW 290307Z AUTO 28008KT 10SM SCT049 BKN055 OVC080 M06/M13 A2997 RMK AO2
Observed
Feb-29 @ 03:07 UTC
Wind
  • 280° at 8 KTS
Visibility
10 SM
Flight Rules
VFR
Cloud Levels
  • Scattered at 4,900' AGL
  • Broken at 5,500' AGL
  • Overcast at 8,000' AGL
Temperature
-6°C / 21°F
Dewpoint
-13°C / 9°F
Humidity
58%
Altimeter
29.97" Hg
Pressure
1014.92 hPa
Previous

50 mins ago

KTEW 290246Z AUTO 28007KT 10SM OVC090 M06/M13 A2997 RMK AO2
Observed
Feb-29 @ 02:46 UTC
Wind
  • 280° at 7 KTS
Visibility
10 SM
Flight Rules
VFR
Cloud Levels
  • Overcast at 9,000' AGL
Temperature
-6°C / 21°F
Dewpoint
-13°C / 9°F
Humidity
58%
Altimeter
29.97" Hg
Pressure
1014.92 hPa
Previous

1 hour ago

KTEW 290225Z AUTO 28008KT 10SM SCT065 OVC100 M06/M13 A2997 RMK AO2
Observed
Feb-29 @ 02:25 UTC
Wind
  • 280° at 8 KTS
Visibility
10 SM
Flight Rules
VFR
Cloud Levels
  • Scattered at 6,500' AGL
  • Overcast at 10,000' AGL
Temperature
-6°C / 21°F
Dewpoint
-13°C / 9°F
Humidity
58%
Altimeter
29.97" Hg
Pressure
1014.92 hPa